sensor_id;sensor_type;location;lat;lon;timestamp;pressure;altitude;pressure_sealevel;temperature;humidity
35224;BME280;21367;51.930;8.112;2023-02-16T00:00:39;101831.59;;;3.64;90.33
35224;BME280;21367;51.930;8.112;2023-02-16T00:05:43;101821.97;;;3.81;92.74
35224;BME280;21367;51.930;8.112;2023-02-16T00:10:50;101828.97;;;3.73;91.53
35224;BME280;21367;51.930;8.112;2023-02-16T00:16:11;101820.03;;;3.68;90.88
35224;BME280;21367;51.930;8.112;2023-02-16T00:21:16;101818.88;;;3.64;92.97
35224;BME280;21367;51.930;8.112;2023-02-16T00:26:24;101812.53;;;3.69;92.69
35224;BME280;21367;51.930;8.112;2023-02-16T00:31:28;101799.88;;;3.80;94.44
35224;BME280;21367;51.930;8.112;2023-02-16T00:36:35;101807.38;;;3.88;94.25
35224;BME280;21367;51.930;8.112;2023-02-16T00:41:41;101805.44;;;4.15;93.03
35224;BME280;21367;51.930;8.112;2023-02-16T00:46:55;101806.94;;;4.03;94.18
35224;BME280;21367;51.930;8.112;2023-02-16T00:51:58;101800.53;;;3.87;93.52
35224;BME280;21367;51.930;8.112;2023-02-16T00:57:06;101784.69;;;4.10;93.16
35224;BME280;21367;51.930;8.112;2023-02-16T01:02:11;101780.00;;;4.35;92.58
35224;BME280;21367;51.930;8.112;2023-02-16T01:07:17;101784.72;;;4.31;92.16
35224;BME280;21367;51.930;8.112;2023-02-16T01:12:38;101778.22;;;4.24;92.31
35224;BME280;21367;51.930;8.112;2023-02-16T01:17:44;101781.44;;;4.52;91.73
35224;BME280;21367;51.930;8.112;2023-02-16T01:22:49;101796.19;;;4.36;90.78
35224;BME280;21367;51.930;8.112;2023-02-16T01:27:55;101797.34;;;3.90;91.63
35224;BME280;21367;51.930;8.112;2023-02-16T01:33:00;101794.91;;;3.81;92.67
35224;BME280;21367;51.930;8.112;2023-02-16T01:38:04;101792.88;;;3.77;92.65
35224;BME280;21367;51.930;8.112;2023-02-16T01:43:17;101791.03;;;4.05;93.86
35224;BME280;21367;51.930;8.112;2023-02-16T01:48:25;101790.16;;;3.76;93.91
35224;BME280;21367;51.930;8.112;2023-02-16T01:53:32;101779.31;;;3.97;93.82
35224;BME280;21367;51.930;8.112;2023-02-16T01:58:44;101779.13;;;4.25;91.95
35224;BME280;21367;51.930;8.112;2023-02-16T02:03:49;101775.47;;;4.52;90.95
35224;BME280;21367;51.930;8.112;2023-02-16T02:09:09;101767.16;;;4.34;90.15
35224;BME280;21367;51.930;8.112;2023-02-16T02:14:24;101768.06;;;4.24;91.75
35224;BME280;21367;51.930;8.112;2023-02-16T02:19:35;101761.19;;;4.44;90.90
35224;BME280;21367;51.930;8.112;2023-02-16T02:25:11;101774.91;;;4.05;91.35
35224;BME280;21367;51.930;8.112;2023-02-16T02:30:35;101766.50;;;4.16;89.94
35224;BME280;21367;51.930;8.112;2023-02-16T02:35:48;101769.16;;;4.07;91.15
35224;BME280;21367;51.930;8.112;2023-02-16T02:41:02;101764.81;;;3.96;91.78
35224;BME280;21367;51.930;8.112;2023-02-16T02:46:25;101756.75;;;3.81;92.07
35224;BME280;21367;51.930;8.112;2023-02-16T02:51:31;101755.94;;;4.11;91.52
35224;BME280;21367;51.930;8.112;2023-02-16T02:56:46;101740.22;;;4.36;89.93
35224;BME280;21367;51.930;8.112;2023-02-16T03:02:07;101736.63;;;4.24;90.11
35224;BME280;21367;51.930;8.112;2023-02-16T03:07:14;101740.69;;;4.32;89.66
35224;BME280;21367;51.930;8.112;2023-02-16T03:12:18;101741.22;;;4.48;89.52
35224;BME280;21367;51.930;8.112;2023-02-16T03:17:46;101735.88;;;4.55;88.97
35224;BME280;21367;51.930;8.112;2023-02-16T03:23:04;101728.72;;;4.72;87.90
35224;BME280;21367;51.930;8.112;2023-02-16T03:28:24;101726.81;;;4.69;87.49
35224;BME280;21367;51.930;8.112;2023-02-16T03:33:44;101726.81;;;4.69;87.36
35224;BME280;21367;51.930;8.112;2023-02-16T03:38:55;101724.41;;;4.71;86.98
35224;BME280;21367;51.930;8.112;2023-02-16T03:43:59;101722.38;;;4.56;87.54
35224;BME280;21367;51.930;8.112;2023-02-16T03:49:06;101724.91;;;4.56;87.53
35224;BME280;21367;51.930;8.112;2023-02-16T03:54:10;101720.59;;;4.55;87.51
35224;BME280;21367;51.930;8.112;2023-02-16T03:59:14;101713.06;;;4.57;87.74
35224;BME280;21367;51.930;8.112;2023-02-16T04:04:24;101705.19;;;4.44;87.90
35224;BME280;21367;51.930;8.112;2023-02-16T04:09:28;101703.53;;;4.44;87.58
35224;BME280;21367;51.930;8.112;2023-02-16T04:14:31;101710.56;;;4.36;87.09
35224;BME280;21367;51.930;8.112;2023-02-16T04:19:37;101715.41;;;4.33;87.60
35224;BME280;21367;51.930;8.112;2023-02-16T04:24:41;101715.75;;;4.38;87.21
35224;BME280;21367;51.930;8.112;2023-02-16T04:29:45;101716.03;;;4.51;86.54
35224;BME280;21367;51.930;8.112;2023-02-16T04:34:52;101719.19;;;4.38;87.01
35224;BME280;21367;51.930;8.112;2023-02-16T04:39:56;101733.06;;;4.22;87.93
35224;BME280;21367;51.930;8.112;2023-02-16T04:45:00;101722.13;;;4.23;87.63
35224;BME280;21367;51.930;8.112;2023-02-16T04:50:09;101724.56;;;3.61;89.57
35224;BME280;21367;51.930;8.112;2023-02-16T04:55:14;101719.06;;;4.06;88.31
35224;BME280;21367;51.930;8.112;2023-02-16T05:00:19;101716.13;;;4.22;87.24
35224;BME280;21367;51.930;8.112;2023-02-16T05:05:26;101710.56;;;4.36;86.32
35224;BME280;21367;51.930;8.112;2023-02-16T05:10:31;101706.22;;;4.05;87.65
35224;BME280;21367;51.930;8.112;2023-02-16T05:15:35;101706.97;;;4.34;86.65
35224;BME280;21367;51.930;8.112;2023-02-16T05:20:41;101708.50;;;4.12;86.96
35224;BME280;21367;51.930;8.112;2023-02-16T05:25:57;101714.59;;;4.04;86.35
35224;BME280;21367;51.930;8.112;2023-02-16T05:31:03;101725.03;;;4.07;86.98
35224;BME280;21367;51.930;8.112;2023-02-16T05:36:10;101719.72;;;4.14;85.84
35224;BME280;21367;51.930;8.112;2023-02-16T05:41:14;101720.16;;;3.79;87.89
35224;BME280;21367;51.930;8.112;2023-02-16T05:46:23;101710.53;;;3.46;88.04
35224;BME280;21367;51.930;8.112;2023-02-16T05:51:33;101723.28;;;3.66;87.45
35224;BME280;21367;51.930;8.112;2023-02-16T05:56:40;101715.41;;;3.63;87.43
35224;BME280;21367;51.930;8.112;2023-02-16T06:01:44;101716.75;;;3.50;87.48
35224;BME280;21367;51.930;8.112;2023-02-16T06:07:22;101718.78;;;3.43;87.48
35224;BME280;21367;51.930;8.112;2023-02-16T06:12:41;101711.91;;;3.13;89.71
35224;BME280;21367;51.930;8.112;2023-02-16T06:17:46;101714.84;;;3.47;87.78
35224;BME280;21367;51.930;8.112;2023-02-16T06:22:52;101715.56;;;3.36;88.49
35224;BME280;21367;51.930;8.112;2023-02-16T06:27:56;101729.47;;;3.50;87.13
35224;BME280;21367;51.930;8.112;2023-02-16T06:33:02;101737.78;;;3.09;86.42
35224;BME280;21367;51.930;8.112;2023-02-16T06:38:10;101738.84;;;2.73;86.60
35224;BME280;21367;51.930;8.112;2023-02-16T06:43:13;101738.50;;;2.79;86.24
35224;BME280;21367;51.930;8.112;2023-02-16T06:48:22;101738.34;;;2.40;88.30
35224;BME280;21367;51.930;8.112;2023-02-16T06:53:28;101743.59;;;2.60;87.21
35224;BME280;21367;51.930;8.112;2023-02-16T06:58:33;101747.19;;;2.72;87.24
35224;BME280;21367;51.930;8.112;2023-02-16T07:03:39;101748.66;;;2.79;87.70
35224;BME280;21367;51.930;8.112;2023-02-16T07:08:46;101748.13;;;2.92;87.21
35224;BME280;21367;51.930;8.112;2023-02-16T07:13:50;101739.38;;;3.17;86.99
35224;BME280;21367;51.930;8.112;2023-02-16T07:18:55;101730.69;;;2.86;88.57
35224;BME280;21367;51.930;8.112;2023-02-16T07:24:01;101725.84;;;3.08;89.13
35224;BME280;21367;51.930;8.112;2023-02-16T07:29:04;101731.78;;;3.28;88.10
35224;BME280;21367;51.930;8.112;2023-02-16T07:34:08;101726.34;;;3.04;90.56
35224;BME280;21367;51.930;8.112;2023-02-16T07:39:15;101737.88;;;3.59;87.81
35224;BME280;21367;51.930;8.112;2023-02-16T07:44:19;101751.50;;;4.09;86.19
35224;BME280;21367;51.930;8.112;2023-02-16T07:49:23;101739.28;;;4.05;86.59
35224;BME280;21367;51.930;8.112;2023-02-16T07:54:30;101721.47;;;4.15;88.17
35224;BME280;21367;51.930;8.112;2023-02-16T07:59:34;101726.84;;;4.59;86.86
35224;BME280;21367;51.930;8.112;2023-02-16T08:04:38;101747.69;;;4.65;87.13
35224;BME280;21367;51.930;8.112;2023-02-16T08:09:45;101751.88;;;4.95;85.44
35224;BME280;21367;51.930;8.112;2023-02-16T08:14:50;101753.31;;;4.30;87.26
35224;BME280;21367;51.930;8.112;2023-02-16T08:19:54;101749.59;;;4.78;85.67
35224;BME280;21367;51.930;8.112;2023-02-16T08:25:00;101740.53;;;4.00;91.19
35224;BME280;21367;51.930;8.112;2023-02-16T08:30:06;101720.72;;;4.57;89.17
35224;BME280;21367;51.930;8.112;2023-02-16T08:35:13;101730.91;;;4.67;90.00
35224;BME280;21367;51.930;8.112;2023-02-16T08:40:21;101717.06;;;5.38;88.95
35224;BME280;21367;51.930;8.112;2023-02-16T08:45:26;101725.78;;;6.06;85.04
35224;BME280;21367;51.930;8.112;2023-02-16T08:50:30;101726.34;;;5.70;86.41
35224;BME280;21367;51.930;8.112;2023-02-16T08:55:38;101715.09;;;6.22;84.61
35224;BME280;21367;51.930;8.112;2023-02-16T09:00:42;101715.75;;;6.65;82.68
35224;BME280;21367;51.930;8.112;2023-02-16T09:05:48;101734.44;;;6.30;83.14
35224;BME280;21367;51.930;8.112;2023-02-16T09:10:55;101735.50;;;6.79;84.73
35224;BME280;21367;51.930;8.112;2023-02-16T09:16:04;101740.09;;;6.83;85.53
35224;BME280;21367;51.930;8.112;2023-02-16T09:21:11;101732.72;;;7.47;83.17
35224;BME280;21367;51.930;8.112;2023-02-16T09:26:23;101737.25;;;7.74;81.80
35224;BME280;21367;51.930;8.112;2023-02-16T09:31:30;101734.41;;;8.33;80.12
35224;BME280;21367;51.930;8.112;2023-02-16T09:36:36;101717.34;;;8.97;73.13
35224;BME280;21367;51.930;8.112;2023-02-16T09:41:55;101732.41;;;8.79;73.38
35224;BME280;21367;51.930;8.112;2023-02-16T09:47:13;101728.75;;;8.75;72.67
35224;BME280;21367;51.930;8.112;2023-02-16T09:52:27;101740.91;;;8.91;72.11
35224;BME280;21367;51.930;8.112;2023-02-16T09:58:02;101730.22;;;9.12;71.26
35224;BME280;21367;51.930;8.112;2023-02-16T10:03:22;101743.66;;;8.81;70.67
35224;BME280;21367;51.930;8.112;2023-02-16T10:08:48;101737.81;;;8.70;71.69
35224;BME280;21367;51.930;8.112;2023-02-16T10:14:11;101747.28;;;8.71;71.97
35224;BME280;21367;51.930;8.112;2023-02-16T10:19:25;101749.88;;;8.85;71.86
35224;BME280;21367;51.930;8.112;2023-02-16T10:24:38;101737.25;;;8.88;72.05
35224;BME280;21367;51.930;8.112;2023-02-16T10:29:47;101731.91;;;9.38;69.84
35224;BME280;21367;51.930;8.112;2023-02-16T10:34:55;101736.03;;;9.62;69.87
35224;BME280;21367;51.930;8.112;2023-02-16T10:40:13;101737.94;;;9.80;69.52
35224;BME280;21367;51.930;8.112;2023-02-16T10:45:27;101732.63;;;9.77;69.58
35224;BME280;21367;51.930;8.112;2023-02-16T10:50:37;101727.97;;;9.84;69.16
35224;BME280;21367;51.930;8.112;2023-02-16T10:55:43;101727.13;;;9.57;70.11
35224;BME280;21367;51.930;8.112;2023-02-16T11:00:55;101727.91;;;9.98;69.06
35224;BME280;21367;51.930;8.112;2023-02-16T11:06:13;101736.28;;;9.25;71.56
35224;BME280;21367;51.930;8.112;2023-02-16T11:11:17;101721.84;;;9.82;70.44
35224;BME280;21367;51.930;8.112;2023-02-16T11:16:25;101726.88;;;9.39;72.91
35224;BME280;21367;51.930;8.112;2023-02-16T11:21:47;101729.06;;;9.46;73.32
35224;BME280;21367;51.930;8.112;2023-02-16T11:33:33;101725.97;;;9.93;72.35
35224;BME280;21367;51.930;8.112;2023-02-16T11:39:16;101719.72;;;9.90;72.05
35224;BME280;21367;51.930;8.112;2023-02-16T11:44:50;101704.47;;;10.06;71.91
35224;BME280;21367;51.930;8.112;2023-02-16T11:50:17;101704.13;;;9.87;72.02
35224;BME280;21367;51.930;8.112;2023-02-16T11:55:26;101693.28;;;10.34;71.15
35224;BME280;21367;51.930;8.112;2023-02-16T12:00:33;101700.06;;;10.18;71.15
35224;BME280;21367;51.930;8.112;2023-02-16T12:05:50;101702.59;;;10.32;71.95
35224;BME280;21367;51.930;8.112;2023-02-16T12:11:20;101700.38;;;10.53;70.96
35224;BME280;21367;51.930;8.112;2023-02-16T12:16:34;101684.44;;;10.88;69.53
35224;BME280;21367;51.930;8.112;2023-02-16T12:21:45;101681.22;;;10.77;69.58
35224;BME280;21367;51.930;8.112;2023-02-16T12:26:53;101678.22;;;10.70;69.53
35224;BME280;21367;51.930;8.112;2023-02-16T12:32:09;101670.88;;;10.76;69.16
35224;BME280;21367;51.930;8.112;2023-02-16T12:37:27;101668.41;;;10.62;69.83
35224;BME280;21367;51.930;8.112;2023-02-16T12:42:42;101674.25;;;11.06;68.91
35224;BME280;21367;51.930;8.112;2023-02-16T12:47:56;101671.94;;;10.50;70.40
35224;BME280;21367;51.930;8.112;2023-02-16T12:53:11;101651.97;;;10.16;70.89
35224;BME280;21367;51.930;8.112;2023-02-16T12:58:29;101656.44;;;9.90;72.56
35224;BME280;21367;51.930;8.112;2023-02-16T13:03:38;101644.69;;;9.94;73.24
35224;BME280;21367;51.930;8.112;2023-02-16T13:08:50;101651.34;;;10.20;72.81
35224;BME280;21367;51.930;8.112;2023-02-16T13:14:02;101636.34;;;9.98;73.71
35224;BME280;21367;51.930;8.112;2023-02-16T13:19:13;101633.16;;;10.02;74.48
35224;BME280;21367;51.930;8.112;2023-02-16T13:24:30;101621.31;;;10.63;72.73
35224;BME280;21367;51.930;8.112;2023-02-16T13:29:50;101598.41;;;10.83;72.91
35224;BME280;21367;51.930;8.112;2023-02-16T13:35:14;101594.13;;;10.52;75.05
35224;BME280;21367;51.930;8.112;2023-02-16T13:58:43;101587.09;;;10.64;78.71
35224;BME280;21367;51.930;8.112;2023-02-16T14:22:46;101572.09;;;10.41;79.92
35224;BME280;21367;51.930;8.112;2023-02-16T14:28:55;101573.91;;;9.99;80.71
35224;BME280;21367;51.930;8.112;2023-02-16T14:33:38;101585.00;;;9.98;81.74
35224;BME280;21367;51.930;8.112;2023-02-16T14:38:47;101576.56;;;9.86;82.57
35224;BME280;21367;51.930;8.112;2023-02-16T14:44:11;101579.50;;;10.07;81.42
35224;BME280;21367;51.930;8.112;2023-02-16T14:49:57;101584.91;;;9.96;81.87
35224;BME280;21367;51.930;8.112;2023-02-16T15:00:52;101573.41;;;9.47;84.30
35224;BME280;21367;51.930;8.112;2023-02-16T15:06:00;101563.59;;;9.26;85.71
35224;BME280;21367;51.930;8.112;2023-02-16T15:11:14;101551.56;;;9.54;84.83
35224;BME280;21367;51.930;8.112;2023-02-16T15:16:21;101552.19;;;9.64;84.96
35224;BME280;21367;51.930;8.112;2023-02-16T15:21:30;101540.97;;;9.62;83.86
35224;BME280;21367;51.930;8.112;2023-02-16T15:26:35;101541.97;;;9.36;85.95
35224;BME280;21367;51.930;8.112;2023-02-16T15:31:42;101546.16;;;9.21;86.44
35224;BME280;21367;51.930;8.112;2023-02-16T15:36:46;101529.44;;;9.41;85.98
35224;BME280;21367;51.930;8.112;2023-02-16T15:41:51;101534.75;;;9.59;84.80
35224;BME280;21367;51.930;8.112;2023-02-16T15:47:08;101528.31;;;9.65;84.29
35224;BME280;21367;51.930;8.112;2023-02-16T15:52:16;101526.09;;;9.57;84.77
35224;BME280;21367;51.930;8.112;2023-02-16T15:57:26;101525.75;;;9.95;84.02
35224;BME280;21367;51.930;8.112;2023-02-16T16:02:36;101527.19;;;9.75;84.90
35224;BME280;21367;51.930;8.112;2023-02-16T16:07:41;101540.53;;;9.69;85.72
35224;BME280;21367;51.930;8.112;2023-02-16T16:12:45;101541.00;;;9.34;87.15
35224;BME280;21367;51.930;8.112;2023-02-16T16:17:53;101539.81;;;9.29;88.02
35224;BME280;21367;51.930;8.112;2023-02-16T16:23:00;101537.75;;;9.52;86.72
35224;BME280;21367;51.930;8.112;2023-02-16T16:28:09;101532.06;;;9.27;87.54
35224;BME280;21367;51.930;8.112;2023-02-16T16:33:16;101535.63;;;9.16;88.23
35224;BME280;21367;51.930;8.112;2023-02-16T16:38:21;101530.44;;;9.30;88.46
35224;BME280;21367;51.930;8.112;2023-02-16T16:43:27;101522.81;;;9.16;89.26
35224;BME280;21367;51.930;8.112;2023-02-16T16:48:34;101513.66;;;9.35;88.15
35224;BME280;21367;51.930;8.112;2023-02-16T16:53:44;101503.09;;;9.30;88.98
35224;BME280;21367;51.930;8.112;2023-02-16T16:58:57;101489.66;;;9.19;90.79
35224;BME280;21367;51.930;8.112;2023-02-16T17:04:05;101504.72;;;9.00;91.99
35224;BME280;21367;51.930;8.112;2023-02-16T17:09:09;101507.19;;;9.26;89.90
35224;BME280;21367;51.930;8.112;2023-02-16T17:14:14;101499.91;;;9.19;89.75
35224;BME280;21367;51.930;8.112;2023-02-16T17:19:21;101489.97;;;9.11;89.46
35224;BME280;21367;51.930;8.112;2023-02-16T17:24:28;101485.34;;;8.77;92.06
35224;BME280;21367;51.930;8.112;2023-02-16T17:29:32;101483.59;;;8.76;93.29
35224;BME280;21367;51.930;8.112;2023-02-16T17:34:39;101481.97;;;8.91;92.86
35224;BME280;21367;51.930;8.112;2023-02-16T17:39:44;101470.16;;;9.08;90.51
35224;BME280;21367;51.930;8.112;2023-02-16T17:44:48;101466.59;;;8.91;91.54
35224;BME280;21367;51.930;8.112;2023-02-16T17:49:56;101463.09;;;8.76;93.03
35224;BME280;21367;51.930;8.112;2023-02-16T17:55:01;101455.72;;;8.95;91.44
35224;BME280;21367;51.930;8.112;2023-02-16T18:00:29;101457.00;;;9.17;89.71
35224;BME280;21367;51.930;8.112;2023-02-16T18:05:59;101454.16;;;9.40;88.34
35224;BME280;21367;51.930;8.112;2023-02-16T18:11:10;101458.09;;;9.35;87.20
35224;BME280;21367;51.930;8.112;2023-02-16T18:16:25;101463.50;;;9.55;86.45
35224;BME280;21367;51.930;8.112;2023-02-16T18:21:36;101452.63;;;9.73;85.28
35224;BME280;21367;51.930;8.112;2023-02-16T18:27:00;101445.22;;;9.63;85.27
35224;BME280;21367;51.930;8.112;2023-02-16T18:32:11;101449.19;;;9.58;85.35
35224;BME280;21367;51.930;8.112;2023-02-16T18:37:21;101446.53;;;9.42;85.81
35224;BME280;21367;51.930;8.112;2023-02-16T18:42:25;101451.94;;;9.76;84.87
35224;BME280;21367;51.930;8.112;2023-02-16T18:47:30;101456.97;;;9.60;85.62
35224;BME280;21367;51.930;8.112;2023-02-16T18:52:37;101451.75;;;9.58;86.25
35224;BME280;21367;51.930;8.112;2023-02-16T18:57:42;101440.88;;;9.47;88.16
35224;BME280;21367;51.930;8.112;2023-02-16T19:02:47;101437.94;;;9.41;89.80
35224;BME280;21367;51.930;8.112;2023-02-16T19:07:54;101448.03;;;9.38;90.62
35224;BME280;21367;51.930;8.112;2023-02-16T19:12:58;101435.81;;;9.34;92.61
35224;BME280;21367;51.930;8.112;2023-02-16T19:18:04;101439.34;;;9.36;92.78
35224;BME280;21367;51.930;8.112;2023-02-16T19:23:11;101445.91;;;9.31;93.23
35224;BME280;21367;51.930;8.112;2023-02-16T19:28:14;101452.94;;;9.20;94.49
35224;BME280;21367;51.930;8.112;2023-02-16T19:33:19;101447.94;;;9.22;95.99
35224;BME280;21367;51.930;8.112;2023-02-16T19:38:26;101448.81;;;9.22;96.79
35224;BME280;21367;51.930;8.112;2023-02-16T19:43:30;101437.84;;;9.25;97.06
35224;BME280;21367;51.930;8.112;2023-02-16T19:48:34;101436.75;;;9.07;100.00
35224;BME280;21367;51.930;8.112;2023-02-16T19:53:42;101437.44;;;9.04;100.00
35224;BME280;21367;51.930;8.112;2023-02-16T19:58:47;101425.91;;;8.83;100.00
35224;BME280;21367;51.930;8.112;2023-02-16T20:03:52;101429.38;;;8.98;100.00
35224;BME280;21367;51.930;8.112;2023-02-16T20:09:00;101430.94;;;9.09;100.00
35224;BME280;21367;51.930;8.112;2023-02-16T20:14:04;101421.63;;;8.96;100.00
35224;BME280;21367;51.930;8.112;2023-02-16T20:19:08;101424.88;;;8.94;100.00
35224;BME280;21367;51.930;8.112;2023-02-16T20:24:15;101422.53;;;8.84;100.00
35224;BME280;21367;51.930;8.112;2023-02-16T20:29:25;101413.38;;;8.87;100.00
35224;BME280;21367;51.930;8.112;2023-02-16T20:34:30;101422.91;;;8.90;100.00
35224;BME280;21367;51.930;8.112;2023-02-16T20:39:36;101423.16;;;8.79;100.00
35224;BME280;21367;51.930;8.112;2023-02-16T20:44:41;101422.72;;;8.87;100.00
35224;BME280;21367;51.930;8.112;2023-02-16T20:49:44;101412.66;;;8.90;100.00
35224;BME280;21367;51.930;8.112;2023-02-16T20:54:51;101409.28;;;8.76;100.00
35224;BME280;21367;51.930;8.112;2023-02-16T20:59:55;101421.94;;;8.60;100.00
35224;BME280;21367;51.930;8.112;2023-02-16T21:04:59;101411.75;;;8.74;100.00
35224;BME280;21367;51.930;8.112;2023-02-16T21:10:08;101409.50;;;8.66;100.00
35224;BME280;21367;51.930;8.112;2023-02-16T21:15:13;101418.22;;;8.54;100.00
35224;BME280;21367;51.930;8.112;2023-02-16T21:20:17;101410.66;;;8.43;100.00
35224;BME280;21367;51.930;8.112;2023-02-16T21:25:41;101398.88;;;8.60;100.00
35224;BME280;21367;51.930;8.112;2023-02-16T21:30:47;101401.78;;;8.38;100.00
35224;BME280;21367;51.930;8.112;2023-02-16T21:41:51;101374.19;;;8.47;100.00
35224;BME280;21367;51.930;8.112;2023-02-16T21:46:58;101375.28;;;8.37;100.00
35224;BME280;21367;51.930;8.112;2023-02-16T21:52:16;101377.47;;;8.18;100.00
35224;BME280;21367;51.930;8.112;2023-02-16T21:57:26;101383.47;;;8.31;100.00
35224;BME280;21367;51.930;8.112;2023-02-16T22:02:30;101381.28;;;8.38;100.00
35224;BME280;21367;51.930;8.112;2023-02-16T22:07:34;101368.00;;;8.43;100.00
35224;BME280;21367;51.930;8.112;2023-02-16T22:12:40;101362.34;;;8.49;100.00
35224;BME280;21367;51.930;8.112;2023-02-16T22:17:44;101351.53;;;8.53;100.00
35224;BME280;21367;51.930;8.112;2023-02-16T22:22:51;101350.97;;;8.44;100.00
35224;BME280;21367;51.930;8.112;2023-02-16T22:27:58;101339.91;;;8.45;100.00
35224;BME280;21367;51.930;8.112;2023-02-16T22:33:01;101350.09;;;8.43;100.00
35224;BME280;21367;51.930;8.112;2023-02-16T22:38:06;101352.47;;;8.40;100.00
35224;BME280;21367;51.930;8.112;2023-02-16T22:43:13;101350.19;;;8.31;100.00
35224;BME280;21367;51.930;8.112;2023-02-16T22:48:17;101349.66;;;8.50;100.00
35224;BME280;21367;51.930;8.112;2023-02-16T22:53:21;101352.22;;;8.50;100.00
35224;BME280;21367;51.930;8.112;2023-02-16T22:58:28;101358.50;;;8.55;100.00
35224;BME280;21367;51.930;8.112;2023-02-16T23:03:32;101355.00;;;8.40;100.00
35224;BME280;21367;51.930;8.112;2023-02-16T23:08:36;101367.06;;;8.56;100.00
35224;BME280;21367;51.930;8.112;2023-02-16T23:13:43;101373.22;;;8.45;100.00
35224;BME280;21367;51.930;8.112;2023-02-16T23:18:48;101371.22;;;8.54;100.00
35224;BME280;21367;51.930;8.112;2023-02-16T23:23:52;101366.41;;;8.32;100.00
35224;BME280;21367;51.930;8.112;2023-02-16T23:29:00;101358.03;;;8.48;100.00
35224;BME280;21367;51.930;8.112;2023-02-16T23:34:07;101360.78;;;8.51;100.00
35224;BME280;21367;51.930;8.112;2023-02-16T23:39:13;101356.47;;;8.65;100.00
35224;BME280;21367;51.930;8.112;2023-02-16T23:44:20;101350.22;;;8.60;100.00
35224;BME280;21367;51.930;8.112;2023-02-16T23:49:25;101358.50;;;8.55;100.00
35224;BME280;21367;51.930;8.112;2023-02-16T23:54:29;101367.81;;;8.68;100.00
35224;BME280;21367;51.930;8.112;2023-02-16T23:59:36;101362.88;;;8.71;100.00
